Valkenburg, Nederland

10:34 PM CET op 07 februari 2016 (GMT +0100)
Katwijk aan Zee | | Change Station
CLOSE
Current Station
Persoonlijk weerstation
Location: Katwijk, SOUTH HOLLAND
Geometrische hoogte: 10 ft
Nabije weerstations

Hoogte 10 ft 52.20 °N, 4.40 °E | Updated 16 seconds ago

Clear
Helder
46.6 °F
Voelt als 42 °F
N
10.1
Wind Variabel Wind van OZO
Gusts 20.1 mijl/u

Vandaag
Hoog -- | Laag -- °F
--% Kans op neerslag
Gisteren
Hoog -- | Laag -- °F
Precip. -- inches
Druk 29.42 inches
Zicht 6.2 mijlen
Wolken
Gevoelstemperatuur 42 °F
Dauwpunt 40 °F
Vochtigheid 79%
Neerslag 0.05 inches
Dikte sneeuw Niet beschikbaar.
8:13 AM 5:39 PM
Afnemende halvemaan, 1% visible
METAR EHRD 072125Z AUTO 19019KT 160V220 9999 NSC 08/02 Q0996 NOSIG
Druk 29.42 inches
Zicht 6.2 mijlen
Wolken
Gevoelstemperatuur 42 °F
Dauwpunt 40 °F
Vochtigheid 79%
Neerslag 0.05 inches
Dikte sneeuw Niet beschikbaar.
8:13 AM 5:39 PM
Afnemende halvemaan, 1% visible
METAR EHRD 072125Z AUTO 19019KT 160V220 9999 NSC 08/02 Q0996 NOSIG

10-Day Weather Forecast

Almanac

Astronomie

Feb. 07, 2016 Opkomst Ondergang
Werkelijke tijd
Burgerlijke schemering
Nautische schemering
Astronomische schemering
Maan
Golflengte van het zichtbare licht
Daglengte
Tomorrow will be .
, % of the Moon is Illuminated

Extremen vandaag

Country Highs Country Lows

Community

WunderPhotos

Upload Photos

1,891,301 foto’s ge-upload!

WunderBlog® & News

Nearby

Luchtkwaliteit

  Luchtkwaliteit LK-index Verontreinigende stof
Not available.

Dikte sneeuw

Station Depth Geometrische hoogte

Aardbevingen

Stad Distance Mag. Time & Date
Minimum magnitude displayed is 2.5.

Watertemperatuur langs de kust

Plaats Temperatuur

Stations

Nabije weerstations

Locatie station Temp. Gevoelstemperatuur Dauwpunt Vochtigheid Wind Precip. Hoogte Geactualiseerd Type